sensor_id;sensor_type;location;lat;lon;timestamp;temperature;humidity
20422;DHT22;10370;53.102;18.034;2022-08-03T00:00:42;16.10;99.90
20422;DHT22;10370;53.102;18.034;2022-08-03T00:06:03;16.10;99.90
20422;DHT22;10370;53.102;18.034;2022-08-03T00:11:24;16.00;99.90
20422;DHT22;10370;53.102;18.034;2022-08-03T00:16:47;16.00;99.90
20422;DHT22;10370;53.102;18.034;2022-08-03T00:22:09;16.00;99.90
20422;DHT22;10370;53.102;18.034;2022-08-03T00:27:30;16.00;99.90
20422;DHT22;10370;53.102;18.034;2022-08-03T00:32:53;15.80;99.90
20422;DHT22;10370;53.102;18.034;2022-08-03T00:38:17;15.80;99.90
20422;DHT22;10370;53.102;18.034;2022-08-03T00:43:38;15.90;99.90
20422;DHT22;10370;53.102;18.034;2022-08-03T00:49:01;16.00;99.90
20422;DHT22;10370;53.102;18.034;2022-08-03T00:54:24;16.00;99.90
20422;DHT22;10370;53.102;18.034;2022-08-03T00:59:47;15.90;99.90
20422;DHT22;10370;53.102;18.034;2022-08-03T01:05:10;15.80;99.90
20422;DHT22;10370;53.102;18.034;2022-08-03T01:11:14;15.80;99.90
20422;DHT22;10370;53.102;18.034;2022-08-03T01:17:01;15.80;99.90
20422;DHT22;10370;53.102;18.034;2022-08-03T01:34:26;15.80;99.90
20422;DHT22;10370;53.102;18.034;2022-08-03T01:39:50;15.80;99.90
20422;DHT22;10370;53.102;18.034;2022-08-03T01:45:16;15.80;99.90
20422;DHT22;10370;53.102;18.034;2022-08-03T01:50:39;15.80;99.90
20422;DHT22;10370;53.102;18.034;2022-08-03T01:56:03;15.80;99.90
20422;DHT22;10370;53.102;18.034;2022-08-03T02:01:28;15.80;99.90
20422;DHT22;10370;53.102;18.034;2022-08-03T02:07:11;15.80;99.90
20422;DHT22;10370;53.102;18.034;2022-08-03T02:12:35;15.80;99.90
20422;DHT22;10370;53.102;18.034;2022-08-03T02:17:57;15.80;99.90
20422;DHT22;10370;53.102;18.034;2022-08-03T02:23:20;15.80;99.90
20422;DHT22;10370;53.102;18.034;2022-08-03T02:28:48;15.80;99.90
20422;DHT22;10370;53.102;18.034;2022-08-03T02:34:13;15.80;99.90
20422;DHT22;10370;53.102;18.034;2022-08-03T02:39:36;15.80;99.90
20422;DHT22;10370;53.102;18.034;2022-08-03T02:45:02;15.70;99.90
20422;DHT22;10370;53.102;18.034;2022-08-03T02:50:27;15.80;99.90
20422;DHT22;10370;53.102;18.034;2022-08-03T02:55:52;15.80;99.90
20422;DHT22;10370;53.102;18.034;2022-08-03T03:01:21;15.90;99.90
20422;DHT22;10370;53.102;18.034;2022-08-03T03:06:50;15.80;99.90
20422;DHT22;10370;53.102;18.034;2022-08-03T03:13:10;15.90;99.90
20422;DHT22;10370;53.102;18.034;2022-08-03T03:18:54;15.90;99.90
20422;DHT22;10370;53.102;18.034;2022-08-03T03:24:15;16.00;99.90
20422;DHT22;10370;53.102;18.034;2022-08-03T03:29:37;15.90;99.90
20422;DHT22;10370;53.102;18.034;2022-08-03T03:35:04;15.90;99.90
20422;DHT22;10370;53.102;18.034;2022-08-03T03:40:26;16.00;99.90
20422;DHT22;10370;53.102;18.034;2022-08-03T03:45:48;16.00;99.90
20422;DHT22;10370;53.102;18.034;2022-08-03T03:51:09;16.00;99.90
20422;DHT22;10370;53.102;18.034;2022-08-03T03:56:31;16.00;99.90
20422;DHT22;10370;53.102;18.034;2022-08-03T04:01:52;16.10;99.90
20422;DHT22;10370;53.102;18.034;2022-08-03T04:07:18;16.20;99.90
20422;DHT22;10370;53.102;18.034;2022-08-03T04:12:59;16.30;99.90
20422;DHT22;10370;53.102;18.034;2022-08-03T04:18:22;16.40;99.90
20422;DHT22;10370;53.102;18.034;2022-08-03T04:23:48;16.60;99.90
20422;DHT22;10370;53.102;18.034;2022-08-03T04:29:10;16.70;99.90
20422;DHT22;10370;53.102;18.034;2022-08-03T04:34:31;16.90;99.90
20422;DHT22;10370;53.102;18.034;2022-08-03T04:39:53;17.10;99.90
20422;DHT22;10370;53.102;18.034;2022-08-03T04:45:18;17.30;99.90
20422;DHT22;10370;53.102;18.034;2022-08-03T04:50:41;17.60;99.90
20422;DHT22;10370;53.102;18.034;2022-08-03T04:56:04;18.10;99.90
20422;DHT22;10370;53.102;18.034;2022-08-03T05:01:25;19.60;99.90
20422;DHT22;10370;53.102;18.034;2022-08-03T05:06:46;19.90;99.90
20422;DHT22;10370;53.102;18.034;2022-08-03T05:12:23;20.10;99.90
20422;DHT22;10370;53.102;18.034;2022-08-03T05:17:47;20.10;99.90
20422;DHT22;10370;53.102;18.034;2022-08-03T05:23:12;21.10;99.90
20422;DHT22;10370;53.102;18.034;2022-08-03T05:28:44;25.50;99.90
20422;DHT22;10370;53.102;18.034;2022-08-03T05:34:19;25.50;99.90
20422;DHT22;10370;53.102;18.034;2022-08-03T05:39:41;23.90;99.90
20422;DHT22;10370;53.102;18.034;2022-08-03T05:45:35;22.90;99.90
20422;DHT22;10370;53.102;18.034;2022-08-03T05:51:34;22.10;99.90
20422;DHT22;10370;53.102;18.034;2022-08-03T05:57:19;21.80;99.90
20422;DHT22;10370;53.102;18.034;2022-08-03T06:02:41;21.60;99.90
20422;DHT22;10370;53.102;18.034;2022-08-03T06:08:07;21.70;99.90
20422;DHT22;10370;53.102;18.034;2022-08-03T06:13:31;22.00;99.90
20422;DHT22;10370;53.102;18.034;2022-08-03T06:19:01;22.30;99.90
20422;DHT22;10370;53.102;18.034;2022-08-03T06:24:40;23.00;99.90
20422;DHT22;10370;53.102;18.034;2022-08-03T06:35:52;23.80;99.90
20422;DHT22;10370;53.102;18.034;2022-08-03T06:53:33;24.20;99.90
20422;DHT22;10370;53.102;18.034;2022-08-03T06:58:55;24.30;99.90
20422;DHT22;10370;53.102;18.034;2022-08-03T07:04:18;24.40;99.90
20422;DHT22;10370;53.102;18.034;2022-08-03T07:09:42;24.50;99.90
20422;DHT22;10370;53.102;18.034;2022-08-03T07:15:15;24.80;99.90
20422;DHT22;10370;53.102;18.034;2022-08-03T07:31:27;25.00;99.90
20422;DHT22;10370;53.102;18.034;2022-08-03T07:36:54;25.10;99.90
20422;DHT22;10370;53.102;18.034;2022-08-03T07:42:17;25.30;99.90
20422;DHT22;10370;53.102;18.034;2022-08-03T07:47:50;25.40;99.90
20422;DHT22;10370;53.102;18.034;2022-08-03T07:53:13;25.40;99.90
20422;DHT22;10370;53.102;18.034;2022-08-03T07:58:35;25.60;99.90
20422;DHT22;10370;53.102;18.034;2022-08-03T08:03:57;25.60;99.90
20422;DHT22;10370;53.102;18.034;2022-08-03T08:09:18;25.60;99.90
20422;DHT22;10370;53.102;18.034;2022-08-03T08:14:39;25.70;99.90
20422;DHT22;10370;53.102;18.034;2022-08-03T08:20:03;25.70;99.90
20422;DHT22;10370;53.102;18.034;2022-08-03T08:25:26;25.60;99.90
20422;DHT22;10370;53.102;18.034;2022-08-03T08:30:48;25.40;99.90
20422;DHT22;10370;53.102;18.034;2022-08-03T08:36:14;25.40;99.90
20422;DHT22;10370;53.102;18.034;2022-08-03T08:41:38;25.40;99.90
20422;DHT22;10370;53.102;18.034;2022-08-03T08:47:02;25.40;99.90
20422;DHT22;10370;53.102;18.034;2022-08-03T08:52:26;25.50;99.90
20422;DHT22;10370;53.102;18.034;2022-08-03T08:58:09;25.60;99.90
20422;DHT22;10370;53.102;18.034;2022-08-03T09:03:33;25.60;99.90
20422;DHT22;10370;53.102;18.034;2022-08-03T09:08:54;25.40;99.90
20422;DHT22;10370;53.102;18.034;2022-08-03T09:14:15;25.60;99.90
20422;DHT22;10370;53.102;18.034;2022-08-03T09:20:05;25.70;99.90
20422;DHT22;10370;53.102;18.034;2022-08-03T09:25:33;26.00;99.90
20422;DHT22;10370;53.102;18.034;2022-08-03T09:30:59;26.30;99.90
20422;DHT22;10370;53.102;18.034;2022-08-03T09:36:45;26.60;99.90
20422;DHT22;10370;53.102;18.034;2022-08-03T09:42:16;27.00;99.90
20422;DHT22;10370;53.102;18.034;2022-08-03T09:47:46;27.10;99.90
20422;DHT22;10370;53.102;18.034;2022-08-03T09:53:20;27.30;99.90
20422;DHT22;10370;53.102;18.034;2022-08-03T09:58:46;27.30;99.90
20422;DHT22;10370;53.102;18.034;2022-08-03T10:04:14;27.30;99.90
20422;DHT22;10370;53.102;18.034;2022-08-03T10:09:57;27.40;99.90
20422;DHT22;10370;53.102;18.034;2022-08-03T10:15:59;27.40;99.90
20422;DHT22;10370;53.102;18.034;2022-08-03T10:21:49;27.40;99.90
20422;DHT22;10370;53.102;18.034;2022-08-03T10:27:22;27.80;99.00
20422;DHT22;10370;53.102;18.034;2022-08-03T10:44:35;27.80;97.70
20422;DHT22;10370;53.102;18.034;2022-08-03T10:49:56;27.90;96.90
20422;DHT22;10370;53.102;18.034;2022-08-03T10:55:41;27.60;95.90
20422;DHT22;10370;53.102;18.034;2022-08-03T11:01:48;28.00;96.20
20422;DHT22;10370;53.102;18.034;2022-08-03T11:07:28;28.20;95.80
20422;DHT22;10370;53.102;18.034;2022-08-03T11:12:49;28.30;94.70
20422;DHT22;10370;53.102;18.034;2022-08-03T11:18:12;28.30;95.30
20422;DHT22;10370;53.102;18.034;2022-08-03T11:23:44;28.30;95.40
20422;DHT22;10370;53.102;18.034;2022-08-03T11:29:36;28.30;94.70
20422;DHT22;10370;53.102;18.034;2022-08-03T11:35:17;28.10;94.70
20422;DHT22;10370;53.102;18.034;2022-08-03T11:46:09;28.20;94.10
20422;DHT22;10370;53.102;18.034;2022-08-03T11:57:11;28.30;93.20
20422;DHT22;10370;53.102;18.034;2022-08-03T12:02:32;28.20;93.80
20422;DHT22;10370;53.102;18.034;2022-08-03T12:07:53;28.20;93.30
20422;DHT22;10370;53.102;18.034;2022-08-03T12:13:24;28.30;93.70
20422;DHT22;10370;53.102;18.034;2022-08-03T12:19:17;28.10;91.80
20422;DHT22;10370;53.102;18.034;2022-08-03T12:24:43;28.20;92.00
20422;DHT22;10370;53.102;18.034;2022-08-03T12:30:06;28.40;92.40
20422;DHT22;10370;53.102;18.034;2022-08-03T12:35:28;28.50;91.00
20422;DHT22;10370;53.102;18.034;2022-08-03T12:41:01;28.40;92.10
20422;DHT22;10370;53.102;18.034;2022-08-03T12:46:29;28.60;91.80
20422;DHT22;10370;53.102;18.034;2022-08-03T12:57:12;28.40;90.10
20422;DHT22;10370;53.102;18.034;2022-08-03T13:02:35;28.20;91.00
20422;DHT22;10370;53.102;18.034;2022-08-03T13:07:56;28.20;89.70
20422;DHT22;10370;53.102;18.034;2022-08-03T13:13:17;28.40;89.60
20422;DHT22;10370;53.102;18.034;2022-08-03T13:18:42;28.70;89.40
20422;DHT22;10370;53.102;18.034;2022-08-03T13:24:02;28.80;90.10
20422;DHT22;10370;53.102;18.034;2022-08-03T13:29:24;28.60;89.00
20422;DHT22;10370;53.102;18.034;2022-08-03T13:34:45;28.30;90.10
20422;DHT22;10370;53.102;18.034;2022-08-03T13:40:07;28.70;89.30
20422;DHT22;10370;53.102;18.034;2022-08-03T13:45:31;29.00;88.00
20422;DHT22;10370;53.102;18.034;2022-08-03T13:50:52;29.10;88.10
20422;DHT22;10370;53.102;18.034;2022-08-03T13:56:13;29.10;88.10
20422;DHT22;10370;53.102;18.034;2022-08-03T14:01:34;29.00;87.20
20422;DHT22;10370;53.102;18.034;2022-08-03T14:07:14;28.80;89.50
20422;DHT22;10370;53.102;18.034;2022-08-03T14:12:35;28.70;89.00
20422;DHT22;10370;53.102;18.034;2022-08-03T14:17:56;28.60;89.10
20422;DHT22;10370;53.102;18.034;2022-08-03T14:23:18;28.80;87.70
20422;DHT22;10370;53.102;18.034;2022-08-03T14:28:39;28.90;86.50
20422;DHT22;10370;53.102;18.034;2022-08-03T14:34:00;28.80;87.60
20422;DHT22;10370;53.102;18.034;2022-08-03T14:39:21;28.70;88.20
20422;DHT22;10370;53.102;18.034;2022-08-03T14:44:42;28.70;87.70
20422;DHT22;10370;53.102;18.034;2022-08-03T14:50:04;28.50;90.40
20422;DHT22;10370;53.102;18.034;2022-08-03T14:55:46;28.60;90.00
20422;DHT22;10370;53.102;18.034;2022-08-03T15:01:11;28.90;89.30
20422;DHT22;10370;53.102;18.034;2022-08-03T15:06:51;29.10;87.80
20422;DHT22;10370;53.102;18.034;2022-08-03T15:12:13;29.00;87.50
20422;DHT22;10370;53.102;18.034;2022-08-03T15:17:34;28.80;89.60
20422;DHT22;10370;53.102;18.034;2022-08-03T15:22:55;28.80;88.80
20422;DHT22;10370;53.102;18.034;2022-08-03T15:28:16;28.80;89.00
20422;DHT22;10370;53.102;18.034;2022-08-03T15:33:37;29.00;87.70
20422;DHT22;10370;53.102;18.034;2022-08-03T15:38:59;29.00;87.80
20422;DHT22;10370;53.102;18.034;2022-08-03T15:44:20;28.80;87.90
20422;DHT22;10370;53.102;18.034;2022-08-03T15:49:41;28.90;89.00
20422;DHT22;10370;53.102;18.034;2022-08-03T15:55:03;29.00;88.40
20422;DHT22;10370;53.102;18.034;2022-08-03T16:00:24;29.00;89.80
20422;DHT22;10370;53.102;18.034;2022-08-03T16:05:53;28.80;89.50
20422;DHT22;10370;53.102;18.034;2022-08-03T16:11:15;28.80;88.90
20422;DHT22;10370;53.102;18.034;2022-08-03T16:16:36;28.60;90.00
20422;DHT22;10370;53.102;18.034;2022-08-03T16:22:01;28.60;88.70
20422;DHT22;10370;53.102;18.034;2022-08-03T16:27:22;28.50;88.40
20422;DHT22;10370;53.102;18.034;2022-08-03T16:32:57;28.60;88.50
20422;DHT22;10370;53.102;18.034;2022-08-03T16:38:18;28.60;89.00
20422;DHT22;10370;53.102;18.034;2022-08-03T16:43:39;28.50;88.70
20422;DHT22;10370;53.102;18.034;2022-08-03T16:49:00;28.50;89.10
20422;DHT22;10370;53.102;18.034;2022-08-03T16:54:21;28.20;88.30
20422;DHT22;10370;53.102;18.034;2022-08-03T16:59:42;28.20;89.70
20422;DHT22;10370;53.102;18.034;2022-08-03T17:05:03;28.20;90.20
20422;DHT22;10370;53.102;18.034;2022-08-03T17:10:25;28.10;90.80
20422;DHT22;10370;53.102;18.034;2022-08-03T17:15:47;28.00;90.90
20422;DHT22;10370;53.102;18.034;2022-08-03T17:21:24;27.80;90.60
20422;DHT22;10370;53.102;18.034;2022-08-03T17:26:48;27.60;90.80
20422;DHT22;10370;53.102;18.034;2022-08-03T17:32:10;27.50;90.90
20422;DHT22;10370;53.102;18.034;2022-08-03T17:37:37;27.40;91.60
20422;DHT22;10370;53.102;18.034;2022-08-03T17:43:10;27.30;91.40
20422;DHT22;10370;53.102;18.034;2022-08-03T17:48:53;27.20;91.90
20422;DHT22;10370;53.102;18.034;2022-08-03T17:54:45;27.00;92.00
20422;DHT22;10370;53.102;18.034;2022-08-03T18:00:26;26.90;92.20
20422;DHT22;10370;53.102;18.034;2022-08-03T18:06:20;26.70;92.30
20422;DHT22;10370;53.102;18.034;2022-08-03T18:11:51;26.50;92.50
20422;DHT22;10370;53.102;18.034;2022-08-03T18:17:20;26.40;92.80
20422;DHT22;10370;53.102;18.034;2022-08-03T18:22:47;26.20;93.00
20422;DHT22;10370;53.102;18.034;2022-08-03T18:28:10;26.00;93.20
20422;DHT22;10370;53.102;18.034;2022-08-03T18:33:38;25.90;93.50
20422;DHT22;10370;53.102;18.034;2022-08-03T18:39:19;25.70;93.60
20422;DHT22;10370;53.102;18.034;2022-08-03T18:44:40;25.50;93.90
20422;DHT22;10370;53.102;18.034;2022-08-03T18:50:35;25.40;94.20
20422;DHT22;10370;53.102;18.034;2022-08-03T19:01:37;25.10;94.90
20422;DHT22;10370;53.102;18.034;2022-08-03T19:18:04;24.70;96.20
20422;DHT22;10370;53.102;18.034;2022-08-03T19:23:30;24.60;96.70
20422;DHT22;10370;53.102;18.034;2022-08-03T19:28:56;24.50;97.10
20422;DHT22;10370;53.102;18.034;2022-08-03T19:34:18;24.30;97.60
20422;DHT22;10370;53.102;18.034;2022-08-03T19:39:42;24.20;97.90
20422;DHT22;10370;53.102;18.034;2022-08-03T19:45:06;24.10;98.30
20422;DHT22;10370;53.102;18.034;2022-08-03T19:50:31;24.00;98.70
20422;DHT22;10370;53.102;18.034;2022-08-03T19:55:55;23.80;99.30
20422;DHT22;10370;53.102;18.034;2022-08-03T20:01:16;23.70;99.60
20422;DHT22;10370;53.102;18.034;2022-08-03T20:06:39;23.60;99.90
20422;DHT22;10370;53.102;18.034;2022-08-03T20:12:02;23.50;99.90
20422;DHT22;10370;53.102;18.034;2022-08-03T20:17:23;23.40;99.90
20422;DHT22;10370;53.102;18.034;2022-08-03T20:23:24;23.40;99.90
20422;DHT22;10370;53.102;18.034;2022-08-03T20:28:51;23.30;99.90
20422;DHT22;10370;53.102;18.034;2022-08-03T20:34:13;23.20;99.90
20422;DHT22;10370;53.102;18.034;2022-08-03T20:39:37;23.10;99.90
20422;DHT22;10370;53.102;18.034;2022-08-03T20:44:57;23.00;99.90
20422;DHT22;10370;53.102;18.034;2022-08-03T20:50:26;22.90;99.90
20422;DHT22;10370;53.102;18.034;2022-08-03T20:55:48;22.90;99.90
20422;DHT22;10370;53.102;18.034;2022-08-03T21:01:21;22.80;99.90
20422;DHT22;10370;53.102;18.034;2022-08-03T21:06:49;22.70;99.90
20422;DHT22;10370;53.102;18.034;2022-08-03T21:12:26;22.60;99.90
20422;DHT22;10370;53.102;18.034;2022-08-03T21:17:50;22.40;99.90
20422;DHT22;10370;53.102;18.034;2022-08-03T21:23:18;22.40;99.90
20422;DHT22;10370;53.102;18.034;2022-08-03T21:28:55;22.20;99.90
20422;DHT22;10370;53.102;18.034;2022-08-03T21:34:17;22.10;99.90
20422;DHT22;10370;53.102;18.034;2022-08-03T21:39:40;22.10;99.90
20422;DHT22;10370;53.102;18.034;2022-08-03T21:45:13;22.00;99.90
20422;DHT22;10370;53.102;18.034;2022-08-03T21:50:37;21.90;99.90
20422;DHT22;10370;53.102;18.034;2022-08-03T21:56:09;21.80;99.90
20422;DHT22;10370;53.102;18.034;2022-08-03T22:01:31;21.80;99.90
20422;DHT22;10370;53.102;18.034;2022-08-03T22:06:54;21.70;99.90
20422;DHT22;10370;53.102;18.034;2022-08-03T22:12:15;21.60;99.90
20422;DHT22;10370;53.102;18.034;2022-08-03T22:17:39;21.60;99.90
20422;DHT22;10370;53.102;18.034;2022-08-03T22:23:16;21.50;99.90
20422;DHT22;10370;53.102;18.034;2022-08-03T22:28:41;21.40;99.90
20422;DHT22;10370;53.102;18.034;2022-08-03T22:34:03;21.40;99.90
20422;DHT22;10370;53.102;18.034;2022-08-03T22:39:26;21.30;99.90
20422;DHT22;10370;53.102;18.034;2022-08-03T22:44:49;21.30;99.90
20422;DHT22;10370;53.102;18.034;2022-08-03T22:50:12;21.20;99.90
20422;DHT22;10370;53.102;18.034;2022-08-03T22:55:51;21.10;99.90
20422;DHT22;10370;53.102;18.034;2022-08-03T23:01:15;21.10;99.90
20422;DHT22;10370;53.102;18.034;2022-08-03T23:06:43;21.00;99.90
20422;DHT22;10370;53.102;18.034;2022-08-03T23:12:07;21.00;99.90
20422;DHT22;10370;53.102;18.034;2022-08-03T23:17:30;20.90;99.90
20422;DHT22;10370;53.102;18.034;2022-08-03T23:22:53;20.90;99.90
20422;DHT22;10370;53.102;18.034;2022-08-03T23:28:15;20.90;99.90
20422;DHT22;10370;53.102;18.034;2022-08-03T23:33:37;20.80;99.90
20422;DHT22;10370;53.102;18.034;2022-08-03T23:39:03;20.70;99.90
20422;DHT22;10370;53.102;18.034;2022-08-03T23:44:26;20.70;99.90
20422;DHT22;10370;53.102;18.034;2022-08-03T23:49:49;20.70;99.90
